Terminal Aerodrome Forecast
Issued by NWS

Home | Current Version | Previous Version | Text Only | Print | Product List | Glossary On
Versions: 1 2 3 4 5 6 7 8 9 10 11 12 13 14 15 16 17 18 19 20 21 22 23
000
FTAK31 PAJN 030500
TAFAYA
TAF
PAYA 030535Z 0306/0406 VRB03KT P6SM VCSH BKN012 OVC025
     FM030900 10005KT 6SM -RA BR BKN010 OVC020
     FM031200 14005KT 4SM -RA BR BKN007 OVC015
     FM031700 14006KT 5SM -RA BR SCT007 OVC015
     FM032100 14008KT 6SM -RA BR OVC015
      AMD LTD TO CLD VIS AND WIND 0306/0310=

USA.gov is the U.S. government's official web portal to all federal, state and local government web resources and services.